sensor_id;sensor_type;location;lat;lon;timestamp;pressure;altitude;pressure_sealevel;temperature;humidity
20620;BME280;10469;42.720;23.252;2023-03-22T00:01:56;94579.47;;;8.80;100.00
20620;BME280;10469;42.720;23.252;2023-03-22T00:04:22;94553.56;;;8.69;100.00
20620;BME280;10469;42.720;23.252;2023-03-22T00:06:48;94568.28;;;8.71;100.00
20620;BME280;10469;42.720;23.252;2023-03-22T00:09:13;94574.00;;;8.87;100.00
20620;BME280;10469;42.720;23.252;2023-03-22T00:11:39;94548.31;;;8.62;100.00
20620;BME280;10469;42.720;23.252;2023-03-22T00:14:05;94570.06;;;8.77;100.00
20620;BME280;10469;42.720;23.252;2023-03-22T00:16:31;94569.72;;;8.86;100.00
20620;BME280;10469;42.720;23.252;2023-03-22T00:18:57;94571.22;;;8.82;100.00
20620;BME280;10469;42.720;23.252;2023-03-22T00:21:22;94571.78;;;8.84;100.00
20620;BME280;10469;42.720;23.252;2023-03-22T00:23:48;94570.63;;;8.79;100.00
20620;BME280;10469;42.720;23.252;2023-03-22T00:26:14;94569.81;;;8.79;100.00
20620;BME280;10469;42.720;23.252;2023-03-22T00:28:40;94543.19;;;8.49;100.00
20620;BME280;10469;42.720;23.252;2023-03-22T00:31:06;94558.78;;;8.52;100.00
20620;BME280;10469;42.720;23.252;2023-03-22T00:33:32;94564.56;;;8.49;100.00
20620;BME280;10469;42.720;23.252;2023-03-22T00:36:07;94567.63;;;8.64;100.00
20620;BME280;10469;42.720;23.252;2023-03-22T00:38:33;94564.94;;;8.64;100.00
20620;BME280;10469;42.720;23.252;2023-03-22T00:41:08;94561.69;;;8.74;100.00
20620;BME280;10469;42.720;23.252;2023-03-22T00:43:34;94566.13;;;8.68;100.00
20620;BME280;10469;42.720;23.252;2023-03-22T00:45:59;94546.47;;;8.51;100.00
20620;BME280;10469;42.720;23.252;2023-03-22T00:48:25;94552.97;;;8.55;100.00
20620;BME280;10469;42.720;23.252;2023-03-22T00:50:51;94558.06;;;8.45;100.00
20620;BME280;10469;42.720;23.252;2023-03-22T00:53:16;94543.16;;;8.25;100.00
20620;BME280;10469;42.720;23.252;2023-03-22T00:55:42;94558.78;;;8.52;100.00
20620;BME280;10469;42.720;23.252;2023-03-22T00:58:07;94536.44;;;8.35;100.00
20620;BME280;10469;42.720;23.252;2023-03-22T01:00:33;94562.94;;;8.48;100.00
20620;BME280;10469;42.720;23.252;2023-03-22T01:02:59;94561.44;;;8.52;100.00
20620;BME280;10469;42.720;23.252;2023-03-22T01:05:33;94535.19;;;8.49;100.00
20620;BME280;10469;42.720;23.252;2023-03-22T01:08:03;94537.75;;;8.44;100.00
20620;BME280;10469;42.720;23.252;2023-03-22T01:10:36;94554.81;;;8.43;100.00
20620;BME280;10469;42.720;23.252;2023-03-22T01:13:02;94531.97;;;8.28;100.00
20620;BME280;10469;42.720;23.252;2023-03-22T01:15:28;94538.78;;;8.43;100.00
20620;BME280;10469;42.720;23.252;2023-03-22T01:17:54;94549.72;;;8.53;100.00
20620;BME280;10469;42.720;23.252;2023-03-22T01:20:19;94539.63;;;8.55;100.00
20620;BME280;10469;42.720;23.252;2023-03-22T01:22:45;94540.75;;;8.47;100.00
20620;BME280;10469;42.720;23.252;2023-03-22T01:25:11;94540.44;;;8.56;100.00
20620;BME280;10469;42.720;23.252;2023-03-22T01:27:36;94545.16;;;8.42;100.00
20620;BME280;10469;42.720;23.252;2023-03-22T01:30:04;94533.03;;;8.27;100.00
20620;BME280;10469;42.720;23.252;2023-03-22T01:32:30;94538.78;;;8.43;100.00
20620;BME280;10469;42.720;23.252;2023-03-22T01:34:55;94520.41;;;8.35;100.00
20620;BME280;10469;42.720;23.252;2023-03-22T01:37:21;94519.16;;;8.49;100.00
20620;BME280;10469;42.720;23.252;2023-03-22T01:39:55;94537.50;;;8.57;100.00
20620;BME280;10469;42.720;23.252;2023-03-22T01:42:21;94532.06;;;8.64;100.00
20620;BME280;10469;42.720;23.252;2023-03-22T01:45:49;94526.25;;;8.55;100.00
20620;BME280;10469;42.720;23.252;2023-03-22T01:47:58;94529.13;;;8.53;100.00
20620;BME280;10469;42.720;23.252;2023-03-22T01:50:26;94530.66;;;8.49;100.00
20620;BME280;10469;42.720;23.252;2023-03-22T01:52:54;94520.78;;;8.50;100.00
20620;BME280;10469;42.720;23.252;2023-03-22T01:55:22;94522.75;;;8.43;100.00
20620;BME280;10469;42.720;23.252;2023-03-22T01:57:50;94530.97;;;8.41;100.00
20620;BME280;10469;42.720;23.252;2023-03-22T02:00:17;94500.41;;;8.14;100.00
20620;BME280;10469;42.720;23.252;2023-03-22T02:02:48;94533.56;;;8.48;100.00
20620;BME280;10469;42.720;23.252;2023-03-22T02:05:15;94520.84;;;8.32;100.00
20620;BME280;10469;42.720;23.252;2023-03-22T02:07:42;94516.31;;;8.32;100.00
20620;BME280;10469;42.720;23.252;2023-03-22T02:10:13;94514.56;;;8.14;100.00
20620;BME280;10469;42.720;23.252;2023-03-22T02:15:42;94531.28;;;8.33;100.00
20620;BME280;10469;42.720;23.252;2023-03-22T02:18:30;94536.00;;;8.38;100.00
20620;BME280;10469;42.720;23.252;2023-03-22T02:21:03;94534.25;;;8.43;100.00
20620;BME280;10469;42.720;23.252;2023-03-22T02:23:54;94534.34;;;8.37;100.00
20620;BME280;10469;42.720;23.252;2023-03-22T02:29:31;94537.75;;;8.44;100.00
20620;BME280;10469;42.720;23.252;2023-03-22T02:45:05;94541.78;;;8.35;100.00
20620;BME280;10469;42.720;23.252;2023-03-22T02:47:41;94546.91;;;8.48;100.00
20620;BME280;10469;42.720;23.252;2023-03-22T02:50:41;94535.53;;;8.41;100.00
20620;BME280;10469;42.720;23.252;2023-03-22T02:53:25;94541.41;;;8.31;100.00
20620;BME280;10469;42.720;23.252;2023-03-22T02:56:02;94549.84;;;8.46;100.00
20620;BME280;10469;42.720;23.252;2023-03-22T03:01:06;94549.34;;;8.49;100.00
20620;BME280;10469;42.720;23.252;2023-03-22T03:03:33;94547.63;;;8.43;100.00
20620;BME280;10469;42.720;23.252;2023-03-22T03:06:14;94555.94;;;8.35;100.00
20620;BME280;10469;42.720;23.252;2023-03-22T03:08:41;94557.13;;;8.39;100.00
20620;BME280;10469;42.720;23.252;2023-03-22T03:11:09;94554.06;;;8.36;100.00
20620;BME280;10469;42.720;23.252;2023-03-22T03:13:34;94558.84;;;8.34;100.00
20620;BME280;10469;42.720;23.252;2023-03-22T03:16:01;94553.06;;;8.48;100.00
20620;BME280;10469;42.720;23.252;2023-03-22T03:18:50;94553.44;;;8.52;100.00
20620;BME280;10469;42.720;23.252;2023-03-22T03:29:40;94559.88;;;8.33;100.00
20620;BME280;10469;42.720;23.252;2023-03-22T03:32:20;94541.50;;;8.13;100.00
20620;BME280;10469;42.720;23.252;2023-03-22T03:34:59;94550.69;;;8.28;100.00
20620;BME280;10469;42.720;23.252;2023-03-22T03:37:37;94560.22;;;8.36;100.00
20620;BME280;10469;42.720;23.252;2023-03-22T03:40:12;94557.38;;;8.38;100.00
20620;BME280;10469;42.720;23.252;2023-03-22T03:42:44;94558.69;;;8.28;100.00
20620;BME280;10469;42.720;23.252;2023-03-22T03:45:10;94567.59;;;8.41;100.00
20620;BME280;10469;42.720;23.252;2023-03-22T03:47:37;94566.53;;;8.42;100.00
20620;BME280;10469;42.720;23.252;2023-03-22T03:50:04;94568.06;;;8.38;100.00
20620;BME280;10469;42.720;23.252;2023-03-22T03:52:30;94570.78;;;8.31;100.00
20620;BME280;10469;42.720;23.252;2023-03-22T03:54:56;94571.94;;;8.23;100.00
20620;BME280;10469;42.720;23.252;2023-03-22T03:57:21;94552.06;;;8.08;100.00
20620;BME280;10469;42.720;23.252;2023-03-22T03:59:47;94579.38;;;8.21;100.00
20620;BME280;10469;42.720;23.252;2023-03-22T04:02:13;94567.28;;;8.19;100.00
20620;BME280;10469;42.720;23.252;2023-03-22T04:04:38;94579.38;;;8.33;100.00
20620;BME280;10469;42.720;23.252;2023-03-22T04:07:05;94584.50;;;8.35;100.00
20620;BME280;10469;42.720;23.252;2023-03-22T04:09:33;94565.56;;;8.36;100.00
20620;BME280;10469;42.720;23.252;2023-03-22T04:11:59;94574.16;;;8.26;100.00
20620;BME280;10469;42.720;23.252;2023-03-22T04:14:25;94584.72;;;8.33;100.00
20620;BME280;10469;42.720;23.252;2023-03-22T04:16:51;94580.06;;;8.28;100.00
20620;BME280;10469;42.720;23.252;2023-03-22T04:19:18;94583.63;;;8.41;100.00
20620;BME280;10469;42.720;23.252;2023-03-22T04:21:44;94551.84;;;8.21;100.00
20620;BME280;10469;42.720;23.252;2023-03-22T04:24:10;94585.78;;;8.32;100.00
20620;BME280;10469;42.720;23.252;2023-03-22T04:26:36;94583.06;;;8.09;100.00
20620;BME280;10469;42.720;23.252;2023-03-22T04:29:02;94578.91;;;8.24;100.00
20620;BME280;10469;42.720;23.252;2023-03-22T04:31:30;94587.25;;;8.16;100.00
20620;BME280;10469;42.720;23.252;2023-03-22T04:33:55;94590.75;;;8.28;100.00
20620;BME280;10469;42.720;23.252;2023-03-22T04:36:22;94585.41;;;8.28;100.00
20620;BME280;10469;42.720;23.252;2023-03-22T04:38:49;94588.97;;;8.11;100.00
20620;BME280;10469;42.720;23.252;2023-03-22T04:41:15;94580.03;;;8.05;100.00
20620;BME280;10469;42.720;23.252;2023-03-22T04:43:41;94585.25;;;8.12;100.00
20620;BME280;10469;42.720;23.252;2023-03-22T04:46:07;94584.72;;;8.21;100.00
20620;BME280;10469;42.720;23.252;2023-03-22T04:48:39;94591.56;;;8.17;100.00
20620;BME280;10469;42.720;23.252;2023-03-22T04:51:06;94594.91;;;8.24;100.00
20620;BME280;10469;42.720;23.252;2023-03-22T04:53:33;94594.59;;;8.33;100.00
20620;BME280;10469;42.720;23.252;2023-03-22T04:56:07;94602.56;;;8.39;100.00
20620;BME280;10469;42.720;23.252;2023-03-22T04:58:36;94605.34;;;8.44;100.00
20620;BME280;10469;42.720;23.252;2023-03-22T05:01:03;94598.50;;;8.48;100.00
20620;BME280;10469;42.720;23.252;2023-03-22T05:03:28;94606.75;;;8.47;100.00
20620;BME280;10469;42.720;23.252;2023-03-22T05:05:56;94588.88;;;8.17;100.00
20620;BME280;10469;42.720;23.252;2023-03-22T05:08:24;94608.41;;;8.18;100.00
20620;BME280;10469;42.720;23.252;2023-03-22T05:10:51;94596.75;;;8.42;100.00
20620;BME280;10469;42.720;23.252;2023-03-22T05:13:18;94617.94;;;8.56;100.00
20620;BME280;10469;42.720;23.252;2023-03-22T05:15:44;94597.25;;;8.51;100.00
20620;BME280;10469;42.720;23.252;2023-03-22T05:18:11;94608.25;;;8.54;100.00
20620;BME280;10469;42.720;23.252;2023-03-22T05:20:39;94609.69;;;8.69;100.00
20620;BME280;10469;42.720;23.252;2023-03-22T05:23:06;94622.09;;;8.63;100.00
20620;BME280;10469;42.720;23.252;2023-03-22T05:25:31;94629.78;;;8.60;100.00
20620;BME280;10469;42.720;23.252;2023-03-22T05:27:57;94620.03;;;8.77;100.00
20620;BME280;10469;42.720;23.252;2023-03-22T05:30:27;94629.41;;;8.68;100.00
20620;BME280;10469;42.720;23.252;2023-03-22T05:33:00;94621.19;;;8.69;100.00
20620;BME280;10469;42.720;23.252;2023-03-22T05:35:29;94628.53;;;8.74;100.00
20620;BME280;10469;42.720;23.252;2023-03-22T05:37:55;94629.09;;;8.76;100.00
20620;BME280;10469;42.720;23.252;2023-03-22T05:40:21;94627.81;;;8.78;100.00
20620;BME280;10469;42.720;23.252;2023-03-22T05:42:47;94628.06;;;8.89;100.00
20620;BME280;10469;42.720;23.252;2023-03-22T05:45:13;94633.88;;;8.86;100.00
20620;BME280;10469;42.720;23.252;2023-03-22T05:47:38;94624.56;;;8.88;100.00
20620;BME280;10469;42.720;23.252;2023-03-22T05:50:06;94632.59;;;8.88;100.00
20620;BME280;10469;42.720;23.252;2023-03-22T05:52:32;94620.84;;;8.77;100.00
20620;BME280;10469;42.720;23.252;2023-03-22T05:54:57;94619.00;;;8.90;100.00
20620;BME280;10469;42.720;23.252;2023-03-22T05:57:22;94624.81;;;8.87;100.00
20620;BME280;10469;42.720;23.252;2023-03-22T05:59:48;94637.50;;;9.03;100.00
20620;BME280;10469;42.720;23.252;2023-03-22T06:02:13;94628.19;;;8.94;100.00
20620;BME280;10469;42.720;23.252;2023-03-22T06:04:39;94651.31;;;9.00;100.00
20620;BME280;10469;42.720;23.252;2023-03-22T06:07:06;94629.34;;;9.10;100.00
20620;BME280;10469;42.720;23.252;2023-03-22T06:09:32;94649.34;;;9.42;100.00
20620;BME280;10469;42.720;23.252;2023-03-22T06:11:58;94646.78;;;9.36;100.00
20620;BME280;10469;42.720;23.252;2023-03-22T06:14:23;94645.81;;;9.53;100.00
20620;BME280;10469;42.720;23.252;2023-03-22T06:16:49;94654.53;;;9.49;100.00
20620;BME280;10469;42.720;23.252;2023-03-22T06:19:14;94642.47;;;9.35;100.00
20620;BME280;10469;42.720;23.252;2023-03-22T06:21:40;94647.13;;;9.51;100.00
20620;BME280;10469;42.720;23.252;2023-03-22T06:24:06;94649.44;;;9.59;100.00
20620;BME280;10469;42.720;23.252;2023-03-22T06:26:32;94647.56;;;9.48;100.00
20620;BME280;10469;42.720;23.252;2023-03-22T06:28:57;94636.41;;;9.39;100.00
20620;BME280;10469;42.720;23.252;2023-03-22T06:31:23;94661.41;;;9.68;100.00
20620;BME280;10469;42.720;23.252;2023-03-22T06:33:48;94631.19;;;9.33;100.00
20620;BME280;10469;42.720;23.252;2023-03-22T06:36:14;94668.53;;;9.39;100.00
20620;BME280;10469;42.720;23.252;2023-03-22T06:38:40;94631.91;;;9.80;100.00
20620;BME280;10469;42.720;23.252;2023-03-22T06:41:05;94662.63;;;10.18;100.00
20620;BME280;10469;42.720;23.252;2023-03-22T06:43:31;94664.50;;;10.17;100.00
20620;BME280;10469;42.720;23.252;2023-03-22T06:45:56;94667.19;;;9.89;100.00
20620;BME280;10469;42.720;23.252;2023-03-22T06:48:22;94662.66;;;9.77;100.00
20620;BME280;10469;42.720;23.252;2023-03-22T06:50:47;94661.59;;;9.78;100.00
20620;BME280;10469;42.720;23.252;2023-03-22T06:53:13;94654.59;;;9.89;100.00
20620;BME280;10469;42.720;23.252;2023-03-22T06:55:39;94669.72;;;9.84;100.00
20620;BME280;10469;42.720;23.252;2023-03-22T06:58:04;94666.78;;;9.97;100.00
20620;BME280;10469;42.720;23.252;2023-03-22T07:00:30;94668.28;;;9.64;100.00
20620;BME280;10469;42.720;23.252;2023-03-22T07:02:58;94676.78;;;9.49;100.00
20620;BME280;10469;42.720;23.252;2023-03-22T07:05:23;94656.91;;;9.34;100.00
20620;BME280;10469;42.720;23.252;2023-03-22T07:07:49;94664.78;;;9.40;100.00
20620;BME280;10469;42.720;23.252;2023-03-22T07:10:14;94674.06;;;9.73;100.00
20620;BME280;10469;42.720;23.252;2023-03-22T07:12:40;94684.28;;;9.88;100.00
20620;BME280;10469;42.720;23.252;2023-03-22T07:15:06;94676.13;;;9.83;100.00
20620;BME280;10469;42.720;23.252;2023-03-22T07:17:31;94690.00;;;9.79;100.00
20620;BME280;10469;42.720;23.252;2023-03-22T07:19:57;94686.66;;;9.72;100.00
20620;BME280;10469;42.720;23.252;2023-03-22T07:22:23;94666.41;;;9.53;100.00
20620;BME280;10469;42.720;23.252;2023-03-22T07:24:49;94694.13;;;10.11;100.00
20620;BME280;10469;42.720;23.252;2023-03-22T07:27:16;94698.66;;;10.10;100.00
20620;BME280;10469;42.720;23.252;2023-03-22T07:29:42;94690.50;;;9.76;100.00
20620;BME280;10469;42.720;23.252;2023-03-22T07:32:08;94695.69;;;9.95;100.00
20620;BME280;10469;42.720;23.252;2023-03-22T07:34:34;94694.19;;;9.87;100.00
20620;BME280;10469;42.720;23.252;2023-03-22T07:36:59;94694.19;;;9.87;100.00
20620;BME280;10469;42.720;23.252;2023-03-22T07:39:27;94708.88;;;9.73;100.00
20620;BME280;10469;42.720;23.252;2023-03-22T07:41:53;94708.63;;;9.74;100.00
20620;BME280;10469;42.720;23.252;2023-03-22T07:44:19;94708.31;;;9.59;100.00
20620;BME280;10469;42.720;23.252;2023-03-22T07:46:45;94710.41;;;9.57;100.00
20620;BME280;10469;42.720;23.252;2023-03-22T07:49:11;94718.09;;;9.42;100.00
20620;BME280;10469;42.720;23.252;2023-03-22T07:51:37;94721.69;;;9.24;100.00
20620;BME280;10469;42.720;23.252;2023-03-22T07:54:03;94714.84;;;9.40;100.00
20620;BME280;10469;42.720;23.252;2023-03-22T07:56:29;94715.53;;;9.47;100.00
20620;BME280;10469;42.720;23.252;2023-03-22T07:58:54;94708.06;;;9.49;100.00
20620;BME280;10469;42.720;23.252;2023-03-22T08:01:20;94720.59;;;9.84;100.00
20620;BME280;10469;42.720;23.252;2023-03-22T08:03:46;94725.88;;;9.78;100.00
20620;BME280;10469;42.720;23.252;2023-03-22T08:06:11;94728.53;;;9.78;100.00
20620;BME280;10469;42.720;23.252;2023-03-22T08:08:37;94711.66;;;9.78;100.00
20620;BME280;10469;42.720;23.252;2023-03-22T08:11:05;94718.19;;;9.70;100.00
20620;BME280;10469;42.720;23.252;2023-03-22T08:13:31;94727.53;;;9.68;100.00
20620;BME280;10469;42.720;23.252;2023-03-22T08:15:57;94713.97;;;9.86;100.00
20620;BME280;10469;42.720;23.252;2023-03-22T08:18:23;94723.66;;;9.75;100.00
20620;BME280;10469;42.720;23.252;2023-03-22T08:20:56;94725.28;;;9.76;100.00
20620;BME280;10469;42.720;23.252;2023-03-22T08:23:24;94727.16;;;9.64;100.00
20620;BME280;10469;42.720;23.252;2023-03-22T08:25:50;94720.44;;;9.38;100.00
20620;BME280;10469;42.720;23.252;2023-03-22T08:28:16;94727.31;;;9.46;100.00
20620;BME280;10469;42.720;23.252;2023-03-22T08:30:43;94728.56;;;9.32;100.00
20620;BME280;10469;42.720;23.252;2023-03-22T08:33:09;94739.16;;;9.73;100.00
20620;BME280;10469;42.720;23.252;2023-03-22T08:35:34;94724.94;;;9.49;100.00
20620;BME280;10469;42.720;23.252;2023-03-22T08:38:00;94735.31;;;9.34;100.00
20620;BME280;10469;42.720;23.252;2023-03-22T08:40:26;94732.38;;;9.24;100.00
20620;BME280;10469;42.720;23.252;2023-03-22T08:42:51;94743.22;;;9.29;100.00
20620;BME280;10469;42.720;23.252;2023-03-22T08:45:17;94752.28;;;9.16;100.00
20620;BME280;10469;42.720;23.252;2023-03-22T08:47:43;94750.63;;;9.15;100.00
20620;BME280;10469;42.720;23.252;2023-03-22T08:50:09;94736.94;;;9.12;100.00
20620;BME280;10469;42.720;23.252;2023-03-22T08:52:35;94734.13;;;8.95;100.00
20620;BME280;10469;42.720;23.252;2023-03-22T08:55:02;94743.44;;;9.04;100.00
20620;BME280;10469;42.720;23.252;2023-03-22T08:57:27;94758.25;;;9.42;100.00
20620;BME280;10469;42.720;23.252;2023-03-22T08:59:54;94744.38;;;9.45;100.00
20620;BME280;10469;42.720;23.252;2023-03-22T09:02:24;94740.19;;;9.25;100.00
20620;BME280;10469;42.720;23.252;2023-03-22T09:04:50;94733.53;;;9.75;100.00
20620;BME280;10469;42.720;23.252;2023-03-22T09:07:15;94737.28;;;9.86;100.00
20620;BME280;10469;42.720;23.252;2023-03-22T09:09:45;94750.91;;;9.72;100.00
20620;BME280;10469;42.720;23.252;2023-03-22T09:12:10;94755.44;;;9.84;100.00
20620;BME280;10469;42.720;23.252;2023-03-22T09:14:36;94759.50;;;9.98;100.00
20620;BME280;10469;42.720;23.252;2023-03-22T09:17:02;94749.41;;;9.76;100.00
20620;BME280;10469;42.720;23.252;2023-03-22T09:19:28;94749.41;;;9.76;100.00
20620;BME280;10469;42.720;23.252;2023-03-22T09:21:53;94768.13;;;9.53;100.00
20620;BME280;10469;42.720;23.252;2023-03-22T09:24:19;94763.94;;;9.57;100.00
20620;BME280;10469;42.720;23.252;2023-03-22T09:26:45;94759.16;;;9.71;100.00
20620;BME280;10469;42.720;23.252;2023-03-22T09:29:12;94756.94;;;9.79;100.00
20620;BME280;10469;42.720;23.252;2023-03-22T09:31:37;94738.19;;;9.79;100.00
20620;BME280;10469;42.720;23.252;2023-03-22T09:34:03;94740.53;;;9.88;100.00
20620;BME280;10469;42.720;23.252;2023-03-22T09:36:28;94750.06;;;9.95;100.00
20620;BME280;10469;42.720;23.252;2023-03-22T09:38:56;94736.22;;;9.87;100.00
20620;BME280;10469;42.720;23.252;2023-03-22T09:44:02;94753.94;;;9.64;100.00
20620;BME280;10469;42.720;23.252;2023-03-22T09:46:33;94745.09;;;9.64;100.00
20620;BME280;10469;42.720;23.252;2023-03-22T09:49:03;94754.28;;;9.68;100.00
20620;BME280;10469;42.720;23.252;2023-03-22T09:51:39;94763.09;;;9.92;100.00
20620;BME280;10469;42.720;23.252;2023-03-22T09:54:31;94764.16;;;10.02;100.00
20620;BME280;10469;42.720;23.252;2023-03-22T10:02:02;94754.59;;;9.95;100.00
20620;BME280;10469;42.720;23.252;2023-03-22T10:05:28;94768.00;;;10.07;100.00
20620;BME280;10469;42.720;23.252;2023-03-22T10:10:25;94762.31;;;9.56;100.00
20620;BME280;10469;42.720;23.252;2023-03-22T10:13:28;94768.56;;;9.97;100.00
20620;BME280;10469;42.720;23.252;2023-03-22T10:15:59;94754.81;;;10.05;100.00
20620;BME280;10469;42.720;23.252;2023-03-22T10:18:38;94750.75;;;10.02;100.00
20620;BME280;10469;42.720;23.252;2023-03-22T10:21:08;94759.19;;;10.35;100.00
20620;BME280;10469;42.720;23.252;2023-03-22T10:26:05;94770.16;;;10.45;100.00
20620;BME280;10469;42.720;23.252;2023-03-22T10:28:40;94759.09;;;10.29;100.00
20620;BME280;10469;42.720;23.252;2023-03-22T10:31:15;94749.19;;;10.30;100.00
20620;BME280;10469;42.720;23.252;2023-03-22T10:33:56;94768.81;;;10.07;100.00
20620;BME280;10469;42.720;23.252;2023-03-22T10:36:26;94762.44;;;9.85;100.00
20620;BME280;10469;42.720;23.252;2023-03-22T10:39:00;94768.09;;;10.00;100.00
20620;BME280;10469;42.720;23.252;2023-03-22T10:41:28;94740.59;;;10.04;100.00
20620;BME280;10469;42.720;23.252;2023-03-22T10:43:59;94759.66;;;10.43;100.00
20620;BME280;10469;42.720;23.252;2023-03-22T10:46:37;94752.47;;;10.32;100.00
20620;BME280;10469;42.720;23.252;2023-03-22T10:49:04;94727.28;;;10.21;100.00
20620;BME280;10469;42.720;23.252;2023-03-22T10:51:36;94741.41;;;10.05;100.00
20620;BME280;10469;42.720;23.252;2023-03-22T10:54:04;94738.19;;;10.03;100.00
20620;BME280;10469;42.720;23.252;2023-03-22T10:56:30;94748.44;;;10.06;100.00
20620;BME280;10469;42.720;23.252;2023-03-22T10:58:56;94749.78;;;10.32;100.00
20620;BME280;10469;42.720;23.252;2023-03-22T11:01:31;94763.38;;;10.42;100.00
20620;BME280;10469;42.720;23.252;2023-03-22T11:04:06;94737.56;;;10.13;100.00
20620;BME280;10469;42.720;23.252;2023-03-22T11:06:38;94740.59;;;10.28;100.00
20620;BME280;10469;42.720;23.252;2023-03-22T11:09:18;94752.41;;;10.44;100.00
20620;BME280;10469;42.720;23.252;2023-03-22T11:12:00;94757.19;;;10.53;100.00
20620;BME280;10469;42.720;23.252;2023-03-22T11:14:32;94763.19;;;10.32;100.00
20620;BME280;10469;42.720;23.252;2023-03-22T11:19:33;94738.06;;;10.50;100.00
20620;BME280;10469;42.720;23.252;2023-03-22T11:22:00;94768.91;;;10.12;100.00
20620;BME280;10469;42.720;23.252;2023-03-22T11:24:30;94761.03;;;9.94;100.00
20620;BME280;10469;42.720;23.252;2023-03-22T11:29:50;94721.31;;;9.79;100.00
20620;BME280;10469;42.720;23.252;2023-03-22T11:35:21;94734.47;;;10.44;100.00
20620;BME280;10469;42.720;23.252;2023-03-22T11:37:48;94746.38;;;10.94;100.00
20620;BME280;10469;42.720;23.252;2023-03-22T11:40:15;94744.84;;;10.69;100.00
20620;BME280;10469;42.720;23.252;2023-03-22T11:42:41;94737.34;;;11.00;100.00
20620;BME280;10469;42.720;23.252;2023-03-22T11:45:13;94741.91;;;10.54;100.00
20620;BME280;10469;42.720;23.252;2023-03-22T11:47:39;94724.63;;;10.78;100.00
20620;BME280;10469;42.720;23.252;2023-03-22T11:50:07;94740.38;;;10.75;100.00
20620;BME280;10469;42.720;23.252;2023-03-22T11:52:35;94736.75;;;10.81;100.00
20620;BME280;10469;42.720;23.252;2023-03-22T11:55:01;94733.31;;;11.14;100.00
20620;BME280;10469;42.720;23.252;2023-03-22T11:57:29;94712.88;;;10.79;100.00
20620;BME280;10469;42.720;23.252;2023-03-22T12:00:11;94739.88;;;11.07;100.00
20620;BME280;10469;42.720;23.252;2023-03-22T12:02:45;94735.72;;;10.99;100.00
20620;BME280;10469;42.720;23.252;2023-03-22T12:05:27;94738.25;;;10.89;100.00
20620;BME280;10469;42.720;23.252;2023-03-22T12:10:54;94733.69;;;11.40;100.00
20620;BME280;10469;42.720;23.252;2023-03-22T12:13:31;94725.72;;;11.62;100.00
20620;BME280;10469;42.720;23.252;2023-03-22T12:16:01;94722.66;;;11.53;100.00
20620;BME280;10469;42.720;23.252;2023-03-22T12:18:33;94730.97;;;11.90;100.00
20620;BME280;10469;42.720;23.252;2023-03-22T12:21:01;94715.88;;;12.06;100.00
20620;BME280;10469;42.720;23.252;2023-03-22T12:23:31;94723.72;;;12.13;100.00
20620;BME280;10469;42.720;23.252;2023-03-22T12:26:00;94723.44;;;11.53;100.00
20620;BME280;10469;42.720;23.252;2023-03-22T12:28:47;94722.50;;;12.20;100.00
20620;BME280;10469;42.720;23.252;2023-03-22T12:31:36;94712.47;;;11.94;100.00
20620;BME280;10469;42.720;23.252;2023-03-22T12:34:06;94717.69;;;12.22;100.00
20620;BME280;10469;42.720;23.252;2023-03-22T12:36:44;94717.88;;;12.16;100.00
20620;BME280;10469;42.720;23.252;2023-03-22T12:39:23;94712.47;;;12.38;100.00
20620;BME280;10469;42.720;23.252;2023-03-22T12:41:52;94700.75;;;12.44;100.00
20620;BME280;10469;42.720;23.252;2023-03-22T12:44:23;94710.34;;;12.62;100.00
20620;BME280;10469;42.720;23.252;2023-03-22T12:47:02;94707.56;;;12.78;100.00
20620;BME280;10469;42.720;23.252;2023-03-22T12:49:45;94704.22;;;12.98;100.00
20620;BME280;10469;42.720;23.252;2023-03-22T12:52:24;94698.53;;;12.95;100.00
20620;BME280;10469;42.720;23.252;2023-03-22T12:54:51;94684.53;;;12.39;100.00
20620;BME280;10469;42.720;23.252;2023-03-22T12:57:18;94695.72;;;12.09;100.00
20620;BME280;10469;42.720;23.252;2023-03-22T12:59:50;94695.28;;;12.39;100.00
20620;BME280;10469;42.720;23.252;2023-03-22T13:02:18;94708.06;;;12.26;100.00
20620;BME280;10469;42.720;23.252;2023-03-22T13:04:53;94698.09;;;12.49;100.00
20620;BME280;10469;42.720;23.252;2023-03-22T13:13:09;94719.56;;;12.22;100.00
20620;BME280;10469;42.720;23.252;2023-03-22T13:16:57;94711.34;;;11.90;100.00
20620;BME280;10469;42.720;23.252;2023-03-22T13:21:21;94699.53;;;12.35;100.00
20620;BME280;10469;42.720;23.252;2023-03-22T13:29:34;94695.66;;;13.34;100.00
20620;BME280;10469;42.720;23.252;2023-03-22T13:34:51;94694.59;;;13.07;100.00
20620;BME280;10469;42.720;23.252;2023-03-22T13:37:44;94694.16;;;13.48;100.00
20620;BME280;10469;42.720;23.252;2023-03-22T13:40:32;94680.72;;;13.21;100.00
20620;BME280;10469;42.720;23.252;2023-03-22T13:43:19;94690.75;;;13.25;100.00
20620;BME280;10469;42.720;23.252;2023-03-22T13:46:10;94693.09;;;12.90;100.00
20620;BME280;10469;42.720;23.252;2023-03-22T13:48:40;94689.16;;;12.97;100.00
20620;BME280;10469;42.720;23.252;2023-03-22T14:01:41;94685.06;;;12.95;100.00
20620;BME280;10469;42.720;23.252;2023-03-22T14:04:15;94677.66;;;12.75;100.00
20620;BME280;10469;42.720;23.252;2023-03-22T14:06:58;94693.03;;;13.12;100.00
20620;BME280;10469;42.720;23.252;2023-03-22T14:09:27;94692.03;;;12.91;100.00
20620;BME280;10469;42.720;23.252;2023-03-22T14:12:00;94698.94;;;12.27;100.00
20620;BME280;10469;42.720;23.252;2023-03-22T14:14:49;94699.75;;;12.55;100.00
20620;BME280;10469;42.720;23.252;2023-03-22T14:17:29;94696.25;;;12.81;100.00
20620;BME280;10469;42.720;23.252;2023-03-22T14:19:56;94692.03;;;13.18;100.00
20620;BME280;10469;42.720;23.252;2023-03-22T14:22:32;94669.09;;;13.15;100.00